createdAt,value
2022-12-18T00:00:48.396Z,0.35
2022-12-18T00:03:36.435Z,0.33
2022-12-18T00:06:03.145Z,0.29
2022-12-18T00:08:29.538Z,0.27
2022-12-18T00:10:55.929Z,0.24
2022-12-18T00:13:27.616Z,0.19
2022-12-18T00:15:54.488Z,0.16
2022-12-18T00:18:23.136Z,0.16
2022-12-18T00:20:49.453Z,0.18
2022-12-18T00:23:15.856Z,0.17
2022-12-18T00:25:42.259Z,0.17
2022-12-18T00:28:08.740Z,0.20
2022-12-18T00:30:35.124Z,0.21
2022-12-18T00:33:01.476Z,0.22
2022-12-18T00:35:27.935Z,0.22
2022-12-18T00:37:54.345Z,0.23
2022-12-18T00:40:20.683Z,0.24
2022-12-18T00:42:56.265Z,0.27
2022-12-18T00:45:31.142Z,0.29
2022-12-18T00:47:57.724Z,0.29
2022-12-18T00:50:25.166Z,0.28
2022-12-18T00:52:52.389Z,0.23
2022-12-18T00:55:19.123Z,0.17
2022-12-18T00:57:46.998Z,0.11
2022-12-18T01:00:14.885Z,0.10
2022-12-18T01:02:41.806Z,0.10
2022-12-18T01:05:10.362Z,0.11
2022-12-18T01:07:37.304Z,0.60
2022-12-18T01:10:05.447Z,2.29
2022-12-18T01:12:32.083Z,3.94
2022-12-18T01:14:58.811Z,4.76
2022-12-18T01:17:25.573Z,4.12
2022-12-18T01:19:53.577Z,3.35
2022-12-18T01:22:20.006Z,2.77
2022-12-18T01:24:46.615Z,2.33
2022-12-18T01:27:13.016Z,2.05
2022-12-18T01:29:39.944Z,1.80
2022-12-18T01:32:06.388Z,1.60
2022-12-18T01:34:32.908Z,1.40
2022-12-18T01:36:59.232Z,1.18
2022-12-18T01:39:26.201Z,0.98
2022-12-18T01:42:01.728Z,0.85
2022-12-18T01:44:53.226Z,0.74
2022-12-18T01:47:39.613Z,0.66
2022-12-18T01:50:15.398Z,0.58
2022-12-18T01:52:44.480Z,0.51
2022-12-18T01:55:11.738Z,0.46
2022-12-18T01:57:38.711Z,0.45
2022-12-18T02:00:12.985Z,0.43
2022-12-18T02:02:41.372Z,0.40
2022-12-18T02:05:08.561Z,0.35
2022-12-18T02:07:35.047Z,0.33
2022-12-18T02:10:14.025Z,0.29
2022-12-18T02:12:43.067Z,0.26
2022-12-18T02:15:26.026Z,0.26
2022-12-18T02:17:59.286Z,0.27
2022-12-18T02:20:35.696Z,0.30
2022-12-18T02:23:14.416Z,0.31
2022-12-18T02:26:06.399Z,0.34
2022-12-18T02:28:37.147Z,0.38
2022-12-18T02:31:08.283Z,0.41
2022-12-18T02:33:36.508Z,0.37
2022-12-18T02:36:03.749Z,0.32
2022-12-18T02:38:31.881Z,0.27
2022-12-18T02:41:02.844Z,0.25
2022-12-18T02:43:30.103Z,0.23
2022-12-18T02:45:59.850Z,0.19
2022-12-18T02:48:33.768Z,0.09
2022-12-18T02:51:09.349Z,0.04
2022-12-18T02:54:15.467Z,0.03
2022-12-18T02:56:48.625Z,0.08
2022-12-18T02:59:32.371Z,0.12
2022-12-18T03:01:59.700Z,0.19
2022-12-18T03:04:40.495Z,0.26
2022-12-18T03:07:12.978Z,0.32
2022-12-18T03:09:41.993Z,0.68
2022-12-18T03:12:25.351Z,2.30
2022-12-18T03:15:05.345Z,4.15
2022-12-18T03:17:34.114Z,4.98
2022-12-18T03:20:06.759Z,4.37
2022-12-18T03:22:35.597Z,3.67
2022-12-18T03:25:06.750Z,3.19
2022-12-18T03:27:37.662Z,2.85
2022-12-18T03:30:09.280Z,2.56
2022-12-18T03:32:47.748Z,2.31
2022-12-18T03:35:22.332Z,2.02
2022-12-18T03:37:49.314Z,1.74
2022-12-18T03:40:15.881Z,1.48
2022-12-18T03:42:57.907Z,1.25
2022-12-18T03:45:35.131Z,1.08
2022-12-18T03:48:03.947Z,0.96
2022-12-18T03:51:05.296Z,0.88
2022-12-18T03:53:47.219Z,0.78
2022-12-18T03:56:16.380Z,0.68
2022-12-18T03:58:43.945Z,0.64
2022-12-18T04:01:20.827Z,0.61
2022-12-18T04:03:49.471Z,0.59
2022-12-18T04:06:17.674Z,0.54
2022-12-18T04:08:45.386Z,0.50
2022-12-18T04:11:13.492Z,0.41
2022-12-18T04:13:43.082Z,0.31
2022-12-18T04:16:15.399Z,0.22
2022-12-18T04:18:43.154Z,0.19
2022-12-18T04:21:10.640Z,0.17
2022-12-18T04:23:37.825Z,0.15
2022-12-18T04:26:04.751Z,0.11
2022-12-18T04:28:42.273Z,0.12
2022-12-18T04:31:09.247Z,0.13
2022-12-18T04:33:36.014Z,0.13
2022-12-18T04:36:03.776Z,0.12
2022-12-18T04:38:30.405Z,0.13
2022-12-18T04:41:02.668Z,0.12
2022-12-18T04:43:30.064Z,0.12
2022-12-18T04:46:07.297Z,0.10
2022-12-18T04:48:33.941Z,0.05
2022-12-18T04:51:02.962Z,0.04
2022-12-18T04:53:29.319Z,0.06
2022-12-18T04:56:13.500Z,0.06
2022-12-18T04:58:41.661Z,0.09
2022-12-18T05:01:09.050Z,0.12
2022-12-18T05:03:36.628Z,0.14
2022-12-18T05:06:04.225Z,0.16
2022-12-18T05:08:30.743Z,0.18
2022-12-18T05:11:06.677Z,0.16
2022-12-18T05:13:34.222Z,0.08
2022-12-18T05:16:00.929Z,-0.00
2022-12-18T05:18:27.515Z,-0.06
2022-12-18T05:20:54.754Z,-0.08
2022-12-18T05:23:23.146Z,0.10
2022-12-18T05:26:15.491Z,1.59
2022-12-18T05:28:41.957Z,3.57
2022-12-18T05:31:08.414Z,4.68
2022-12-18T05:33:35.661Z,4.34
2022-12-18T05:36:04.572Z,3.41
2022-12-18T05:38:32.579Z,2.66
2022-12-18T05:40:59.700Z,2.09
2022-12-18T05:43:26.920Z,1.62
2022-12-18T05:45:54.371Z,1.22
2022-12-18T05:48:21.291Z,0.94
2022-12-18T05:50:49.021Z,0.77
2022-12-18T05:53:17.485Z,0.65
2022-12-18T05:55:44.606Z,0.54
2022-12-18T05:58:12.917Z,0.39
2022-12-18T06:00:42.833Z,0.24
2022-12-18T06:03:11.155Z,0.16
2022-12-18T06:05:43.699Z,0.11
2022-12-18T06:08:10.903Z,0.07
2022-12-18T06:10:37.882Z,0.02
2022-12-18T06:13:04.989Z,-0.05
2022-12-18T06:15:31.646Z,-0.11
2022-12-18T06:17:58.054Z,-0.17
2022-12-18T06:20:26.916Z,-0.24
2022-12-18T06:22:56.961Z,-0.31
2022-12-18T06:25:23.465Z,-0.34
2022-12-18T06:27:49.829Z,-0.33
2022-12-18T06:30:16.253Z,-0.31
2022-12-18T06:32:43.029Z,-0.28
2022-12-18T06:35:09.452Z,-0.29
2022-12-18T06:37:35.785Z,-0.32
2022-12-18T06:40:02.381Z,-0.38
2022-12-18T06:42:29.475Z,-0.42
2022-12-18T06:44:55.930Z,-0.44
2022-12-18T06:47:22.320Z,-0.45
2022-12-18T06:49:48.685Z,-0.44
2022-12-18T06:52:18.014Z,-0.51
2022-12-18T06:54:44.719Z,-0.60
2022-12-18T06:57:11.486Z,-0.66
2022-12-18T06:59:37.829Z,-0.68
2022-12-18T07:02:05.009Z,-0.69
2022-12-18T07:04:32.308Z,-0.69
2022-12-18T07:06:58.703Z,-0.68
2022-12-18T07:09:25.173Z,-0.70
2022-12-18T07:11:52.535Z,-0.72
2022-12-18T07:14:18.974Z,-0.69
2022-12-18T07:16:45.484Z,-0.67
2022-12-18T07:19:11.860Z,-0.66
2022-12-18T07:21:38.411Z,-0.63
2022-12-18T07:24:05.839Z,-0.59
2022-12-18T07:26:32.837Z,-0.55
2022-12-18T07:28:59.189Z,-0.56
2022-12-18T07:31:26.000Z,-0.54
2022-12-18T07:33:52.635Z,-0.51
2022-12-18T07:36:19.674Z,-0.47
2022-12-18T07:38:49.951Z,-0.46
2022-12-18T07:41:16.918Z,-0.44
2022-12-18T07:43:43.840Z,-0.41
2022-12-18T07:46:13.975Z,-0.41
2022-12-18T07:48:41.635Z,-0.39
2022-12-18T07:51:08.661Z,-0.38
2022-12-18T07:53:36.309Z,-0.41
2022-12-18T07:56:26.381Z,-0.46
2022-12-18T07:58:52.810Z,-0.60
2022-12-18T08:01:19.274Z,-0.69
2022-12-18T08:03:47.901Z,-0.75
2022-12-18T08:06:14.630Z,-0.76
2022-12-18T08:08:42.452Z,-0.73
2022-12-18T08:11:08.870Z,-0.69
2022-12-18T08:13:35.313Z,-0.66
2022-12-18T08:16:04.825Z,-0.63
2022-12-18T08:18:35.974Z,-0.59
2022-12-18T08:21:09.979Z,-0.54
2022-12-18T08:23:42.082Z,-0.48
2022-12-18T08:26:13.363Z,-0.43
2022-12-18T08:28:40.458Z,-0.42
2022-12-18T08:31:07.999Z,-0.40
2022-12-18T08:33:35.213Z,-0.41
2022-12-18T08:36:02.243Z,-0.47
2022-12-18T08:38:28.936Z,-0.51
2022-12-18T08:41:15.074Z,-0.61
2022-12-18T08:44:00.938Z,-0.69
2022-12-18T08:46:36.499Z,-0.70
2022-12-18T08:49:03.751Z,-0.67
2022-12-18T08:51:30.603Z,-0.69
2022-12-18T08:53:57.325Z,-0.64
2022-12-18T08:56:23.699Z,-0.59
2022-12-18T08:58:54.432Z,-0.55
2022-12-18T09:01:21.489Z,-0.47
2022-12-18T09:03:49.533Z,-0.37
2022-12-18T09:06:17.609Z,-0.29
2022-12-18T09:08:45.080Z,-0.21
2022-12-18T09:11:20.152Z,-0.15
2022-12-18T09:13:46.633Z,-0.12
2022-12-18T09:16:13.201Z,-0.09
2022-12-18T09:18:39.887Z,-0.06
2022-12-18T09:21:11.246Z,-0.02
2022-12-18T09:23:37.695Z,0.01
2022-12-18T09:26:04.666Z,-0.01
2022-12-18T09:28:31.022Z,-0.04
2022-12-18T09:30:57.821Z,-0.07
2022-12-18T09:33:24.433Z,-0.08
2022-12-18T09:35:50.908Z,-0.09
2022-12-18T09:38:19.758Z,-0.03
2022-12-18T09:40:54.601Z,0.04
2022-12-18T09:43:30.832Z,0.06
2022-12-18T09:46:27.900Z,0.08
2022-12-18T09:48:57.796Z,0.12
2022-12-18T09:51:35.646Z,0.12
2022-12-18T09:54:05.900Z,0.13
2022-12-18T09:56:36.173Z,0.14
2022-12-18T09:59:04.375Z,0.23
2022-12-18T10:01:40.186Z,0.32
2022-12-18T10:04:09.961Z,0.39
2022-12-18T10:06:48.967Z,0.41
2022-12-18T10:09:29.169Z,0.29
2022-12-18T10:11:56.138Z,0.18
2022-12-18T10:14:43.724Z,0.11
2022-12-18T10:18:08.971Z,0.09
2022-12-18T10:20:58.638Z,0.15
2022-12-18T10:23:30.429Z,0.18
2022-12-18T10:26:05.390Z,0.22
2022-12-18T10:28:35.254Z,0.22
2022-12-18T10:31:01.879Z,0.23
2022-12-18T10:33:30.461Z,0.30
2022-12-18T10:35:57.720Z,0.40
2022-12-18T10:38:30.244Z,0.49
2022-12-18T10:41:01.560Z,0.57
2022-12-18T10:43:28.000Z,0.67
2022-12-18T10:46:08.357Z,0.83
2022-12-18T10:48:57.358Z,1.07
2022-12-18T10:51:30.298Z,1.25
2022-12-18T10:54:00.045Z,1.37
2022-12-18T10:56:28.744Z,1.54
2022-12-18T10:59:06.333Z,1.64
2022-12-18T11:01:56.297Z,1.70
2022-12-18T11:04:25.413Z,1.64
2022-12-18T11:07:07.571Z,1.58
2022-12-18T11:09:36.830Z,1.51
2022-12-18T11:12:20.468Z,1.45
2022-12-18T11:14:51.973Z,1.44
2022-12-18T11:17:25.917Z,1.42
2022-12-18T11:19:57.526Z,1.35
2022-12-18T11:22:27.894Z,1.32
2022-12-18T11:25:32.598Z,1.30
2022-12-18T11:27:56.204Z,1.29
2022-12-18T11:30:28.682Z,1.26
2022-12-18T11:33:09.964Z,1.19
2022-12-18T11:35:46.165Z,1.12
2022-12-18T11:38:27.620Z,1.10
2022-12-18T11:41:50.455Z,1.12
2022-12-18T11:44:43.366Z,1.12
2022-12-18T11:47:31.709Z,1.11
2022-12-18T11:50:01.645Z,1.11
2022-12-18T11:52:37.572Z,1.12
2022-12-18T11:55:23.599Z,1.16
2022-12-18T11:58:27.872Z,1.23
2022-12-18T12:01:06.443Z,1.23
2022-12-18T12:03:41.104Z,1.16
2022-12-18T12:06:24.926Z,1.12
2022-12-18T12:08:54.814Z,1.15
2022-12-18T12:11:33.348Z,1.18
2022-12-18T12:14:24.896Z,1.15
2022-12-18T12:17:23.825Z,0.99
2022-12-18T12:20:13.506Z,0.85
2022-12-18T12:22:50.287Z,0.79
2022-12-18T12:25:50.290Z,0.72
2022-12-18T12:28:49.001Z,0.61
2022-12-18T12:31:21.469Z,0.53
2022-12-18T12:34:01.893Z,0.44
2022-12-18T12:36:50.284Z,0.42
2022-12-18T12:39:20.957Z,0.49
2022-12-18T12:42:06.238Z,0.54
2022-12-18T12:44:38.892Z,0.55
2022-12-18T12:47:17.265Z,0.60
2022-12-18T12:49:48.071Z,0.61
2022-12-18T12:52:18.537Z,0.52
2022-12-18T12:54:45.898Z,0.43
2022-12-18T12:57:18.669Z,0.39
2022-12-18T13:00:06.387Z,0.34
2022-12-18T13:02:45.661Z,0.34
2022-12-18T13:05:24.105Z,0.34
2022-12-18T13:07:55.151Z,0.31
2022-12-18T13:10:31.549Z,0.30
2022-12-18T13:13:13.364Z,0.31
2022-12-18T13:15:41.410Z,0.32
2022-12-18T13:18:09.675Z,0.35
2022-12-18T13:20:40.566Z,0.40
2022-12-18T13:23:25.061Z,0.42
2022-12-18T13:25:59.761Z,0.40
2022-12-18T13:28:45.695Z,0.38
2022-12-18T13:31:14.071Z,0.42
2022-12-18T13:34:24.724Z,0.47
2022-12-18T13:36:33.983Z,0.47
2022-12-18T13:39:34.909Z,0.42
2022-12-18T13:42:05.283Z,0.38
2022-12-18T13:44:38.544Z,0.30
2022-12-18T13:47:33.128Z,0.18
2022-12-18T13:50:00.807Z,0.10
2022-12-18T13:52:36.043Z,0.04
2022-12-18T13:55:07.607Z,-0.01
2022-12-18T13:57:38.918Z,-0.12
2022-12-18T14:00:20.856Z,-0.17
2022-12-18T14:02:47.482Z,-0.22
2022-12-18T14:05:34.727Z,-0.27
2022-12-18T14:08:05.973Z,-0.30
2022-12-18T14:10:47.751Z,-0.32
2022-12-18T14:13:42.179Z,-0.32
2022-12-18T14:16:14.389Z,-0.39
2022-12-18T14:18:45.713Z,-0.50
2022-12-18T14:21:38.308Z,-0.58
2022-12-18T14:24:09.146Z,-0.61
2022-12-18T14:26:35.540Z,-0.64
2022-12-18T14:29:19.258Z,-0.67
2022-12-18T14:31:45.982Z,-0.73
2022-12-18T14:34:19.713Z,-0.78
2022-12-18T14:36:56.617Z,-0.79
2022-12-18T14:39:24.204Z,-0.85
2022-12-18T14:41:52.543Z,-0.92
2022-12-18T14:44:19.000Z,-0.96
2022-12-18T14:46:46.605Z,-1.00
2022-12-18T14:49:26.829Z,-1.01
2022-12-18T14:51:56.074Z,-1.03
2022-12-18T14:54:23.872Z,-1.04
2022-12-18T14:57:26.712Z,-1.04
2022-12-18T14:59:53.091Z,-1.08
2022-12-18T15:02:27.908Z,-1.09
2022-12-18T15:05:13.339Z,-1.10
2022-12-18T15:07:53.557Z,-1.12
2022-12-18T15:10:21.763Z,-1.16
2022-12-18T15:13:01.445Z,-0.89
2022-12-18T15:15:34.383Z,1.09
2022-12-18T15:18:04.308Z,2.98
2022-12-18T15:20:31.952Z,3.31
2022-12-18T15:22:58.394Z,2.30
2022-12-18T15:25:39.940Z,1.37
2022-12-18T15:28:34.120Z,0.62
2022-12-18T15:31:10.071Z,0.08
2022-12-18T15:33:40.108Z,-0.27
2022-12-18T15:36:12.160Z,-0.56
2022-12-18T15:38:38.680Z,-0.84
2022-12-18T15:41:11.578Z,-1.07
2022-12-18T15:43:41.171Z,-1.27
2022-12-18T15:46:16.036Z,-1.45
2022-12-18T15:48:44.752Z,-1.62
2022-12-18T15:51:17.848Z,-1.51
2022-12-18T15:53:45.424Z,0.00
2022-12-18T15:56:32.682Z,1.85
2022-12-18T15:59:01.057Z,2.87
2022-12-18T16:01:29.934Z,2.18
2022-12-18T16:03:56.931Z,1.34
2022-12-18T16:06:23.452Z,0.69
2022-12-18T16:08:50.105Z,0.18
2022-12-18T16:11:38.227Z,-0.21
2022-12-18T16:14:28.422Z,-0.54
2022-12-18T16:17:05.911Z,-0.88
2022-12-18T16:19:32.261Z,-1.13
2022-12-18T16:21:58.930Z,-1.32
2022-12-18T16:24:28.620Z,-1.50
2022-12-18T16:26:57.109Z,-1.40
2022-12-18T16:29:27.155Z,0.18
2022-12-18T16:31:57.327Z,1.98
2022-12-18T16:34:29.999Z,2.90
2022-12-18T16:37:03.323Z,2.06
2022-12-18T16:39:34.270Z,0.96
2022-12-18T16:42:12.828Z,0.18
2022-12-18T16:44:39.145Z,-0.38
2022-12-18T16:47:05.460Z,-0.80
2022-12-18T16:49:33.013Z,-1.19
2022-12-18T16:52:03.573Z,-1.50
2022-12-18T16:54:30.078Z,-1.78
2022-12-18T16:56:57.078Z,-2.00
2022-12-18T16:59:23.471Z,-2.18
2022-12-18T17:01:50.457Z,-2.32
2022-12-18T17:04:17.814Z,-2.40
2022-12-18T17:06:51.015Z,-1.58
2022-12-18T17:09:22.497Z,0.21
2022-12-18T17:11:48.891Z,1.56
2022-12-18T17:14:17.805Z,1.69
2022-12-18T17:16:45.877Z,0.76
2022-12-18T17:19:17.142Z,-0.10
2022-12-18T17:21:46.558Z,-0.73
2022-12-18T17:24:12.895Z,-1.20
2022-12-18T17:26:39.370Z,-1.59
2022-12-18T17:29:05.788Z,-1.92
2022-12-18T17:31:33.769Z,-2.21
2022-12-18T17:34:02.454Z,-2.44
2022-12-18T17:36:31.591Z,-2.58
2022-12-18T17:39:00.293Z,-2.70
2022-12-18T17:41:27.809Z,-2.81
2022-12-18T17:43:59.181Z,-2.90
2022-12-18T17:46:26.728Z,-2.50
2022-12-18T17:48:57.059Z,-0.49
2022-12-18T17:51:23.748Z,1.33
2022-12-18T17:53:50.338Z,1.80
2022-12-18T17:56:19.341Z,0.90
2022-12-18T17:58:47.266Z,0.00
2022-12-18T18:01:15.523Z,-0.65
2022-12-18T18:03:44.022Z,-1.11
2022-12-18T18:06:11.220Z,-1.49
2022-12-18T18:08:37.773Z,-1.79
2022-12-18T18:11:24.339Z,-2.06
2022-12-18T18:14:00.330Z,-2.35
2022-12-18T18:16:34.572Z,-2.59
2022-12-18T18:19:03.483Z,-2.79
2022-12-18T18:21:30.829Z,-2.95
2022-12-18T18:24:04.423Z,-2.66
2022-12-18T18:26:32.482Z,-0.85
2022-12-18T18:29:00.454Z,0.83
2022-12-18T18:31:30.279Z,1.66
2022-12-18T18:33:57.319Z,0.93
2022-12-18T18:36:24.085Z,0.00
2022-12-18T18:38:51.309Z,-0.69
2022-12-18T18:41:18.622Z,-1.23
2022-12-18T18:43:45.458Z,-1.65
2022-12-18T18:46:14.221Z,-1.97
2022-12-18T18:48:43.660Z,-2.25
2022-12-18T18:51:14.612Z,-2.48
2022-12-18T18:53:49.202Z,-2.75
2022-12-18T18:56:45.620Z,-2.98
2022-12-18T18:59:04.127Z,-3.07
2022-12-18T19:01:30.570Z,-1.82
2022-12-18T19:03:57.161Z,0.12
2022-12-18T19:06:25.828Z,1.26
2022-12-18T19:08:54.852Z,0.65
2022-12-18T19:11:41.769Z,-0.29
2022-12-18T19:14:10.267Z,-1.15
2022-12-18T19:16:37.051Z,-1.72
2022-12-18T19:19:03.789Z,-2.17
2022-12-18T19:21:31.863Z,-2.49
2022-12-18T19:24:01.837Z,-2.76
2022-12-18T19:26:28.863Z,-2.99
2022-12-18T19:29:03.308Z,-3.19
2022-12-18T19:31:35.137Z,-3.35
2022-12-18T19:34:04.365Z,-3.51
2022-12-18T19:36:34.600Z,-3.63
2022-12-18T19:39:02.207Z,-3.35
2022-12-18T19:41:31.277Z,-1.63
2022-12-18T19:43:58.459Z,0.05
2022-12-18T19:46:24.882Z,0.78
2022-12-18T19:48:51.684Z,0.00
2022-12-18T19:51:23.664Z,-0.98
2022-12-18T19:53:56.390Z,-1.72
2022-12-18T19:56:26.860Z,-2.26
2022-12-18T19:58:53.739Z,-2.62
2022-12-18T20:01:22.413Z,-2.88
2022-12-18T20:03:52.576Z,-3.07
2022-12-18T20:06:26.478Z,-3.24
2022-12-18T20:08:54.651Z,-3.39
2022-12-18T20:11:26.271Z,-3.51
2022-12-18T20:13:52.647Z,-3.61
2022-12-18T20:16:19.144Z,-3.03
2022-12-18T20:18:45.568Z,-1.22
2022-12-18T20:21:14.020Z,0.40
2022-12-18T20:23:41.482Z,0.97
2022-12-18T20:26:08.737Z,0.20
2022-12-18T20:28:35.527Z,-0.72
2022-12-18T20:31:05.757Z,-1.37
2022-12-18T20:33:32.615Z,-1.85
2022-12-18T20:36:01.684Z,-2.23
2022-12-18T20:38:29.507Z,-2.56
2022-12-18T20:40:58.797Z,-2.86
2022-12-18T20:43:25.265Z,-3.11
2022-12-18T20:46:00.337Z,-3.35
2022-12-18T20:48:27.712Z,-3.55
2022-12-18T20:51:07.429Z,-3.29
2022-12-18T20:53:34.796Z,-1.38
2022-12-18T20:56:06.431Z,0.25
2022-12-18T20:58:33.001Z,1.01
2022-12-18T21:01:03.564Z,0.25
2022-12-18T21:03:30.184Z,-0.71
2022-12-18T21:05:56.627Z,-1.41
2022-12-18T21:08:23.033Z,-1.89
2022-12-18T21:10:49.325Z,-2.23
2022-12-18T21:13:16.469Z,-2.47
2022-12-18T21:15:43.588Z,-2.67
2022-12-18T21:18:10.407Z,-2.85
2022-12-18T21:20:36.934Z,-3.02
2022-12-18T21:23:14.267Z,-3.16
2022-12-18T21:25:42.989Z,-3.29
2022-12-18T21:28:09.294Z,-3.42
2022-12-18T21:30:35.693Z,-3.56
2022-12-18T21:33:02.265Z,-3.48
2022-12-18T21:35:28.568Z,-2.00
2022-12-18T21:37:58.407Z,0.04
2022-12-18T21:40:24.816Z,0.75
2022-12-18T21:43:10.340Z,0.00
2022-12-18T21:45:40.291Z,-1.03
2022-12-18T21:48:06.845Z,-1.68
2022-12-18T21:50:33.150Z,-2.20
2022-12-18T21:52:59.528Z,-2.60
2022-12-18T21:55:25.901Z,-2.91
2022-12-18T21:57:54.067Z,-3.17
2022-12-18T22:00:20.552Z,-3.36
2022-12-18T22:02:48.745Z,-3.45
2022-12-18T22:05:35.149Z,-3.57
2022-12-18T22:08:01.459Z,-3.66
2022-12-18T22:10:27.983Z,-3.75
2022-12-18T22:12:55.116Z,-3.60
2022-12-18T22:15:22.041Z,-2.19
2022-12-18T22:17:52.688Z,-0.38
2022-12-18T22:20:27.869Z,0.57
2022-12-18T22:22:55.749Z,-0.19
2022-12-18T22:25:22.065Z,-1.06
2022-12-18T22:28:07.228Z,-1.70
2022-12-18T22:30:34.175Z,-2.20
2022-12-18T22:33:01.174Z,-2.54
2022-12-18T22:35:27.491Z,-2.82
2022-12-18T22:37:54.019Z,-3.05
2022-12-18T22:40:27.415Z,-3.24
2022-12-18T22:42:54.156Z,-3.38
2022-12-18T22:45:20.547Z,-3.49
2022-12-18T22:47:46.919Z,-3.60
2022-12-18T22:50:14.111Z,-3.71
2022-12-18T22:52:40.484Z,-3.79
2022-12-18T22:55:07.704Z,-3.88
2022-12-18T22:57:34.236Z,-3.53
2022-12-18T23:00:01.812Z,-1.66
2022-12-18T23:02:28.465Z,-0.05
2022-12-18T23:04:55.041Z,0.69
2022-12-18T23:07:21.568Z,0.02
2022-12-18T23:09:50.031Z,-0.86
2022-12-18T23:12:19.072Z,-1.57
2022-12-18T23:14:47.927Z,-2.06
2022-12-18T23:17:14.389Z,-2.47
2022-12-18T23:19:47.106Z,-2.82
2022-12-18T23:22:16.457Z,-3.09
2022-12-18T23:24:42.964Z,-3.31
2022-12-18T23:27:11.841Z,-3.49
2022-12-18T23:29:39.874Z,-3.64
2022-12-18T23:32:07.041Z,-3.80
2022-12-18T23:34:33.406Z,-3.92
2022-12-18T23:37:00.383Z,-3.75
2022-12-18T23:39:30.158Z,-2.10
2022-12-18T23:41:57.806Z,-0.42
2022-12-18T23:44:24.734Z,0.26
2022-12-18T23:46:51.103Z,-0.49
2022-12-18T23:49:17.850Z,-1.35
2022-12-18T23:51:44.209Z,-1.98
2022-12-18T23:54:10.634Z,-2.47
2022-12-18T23:56:37.075Z,-2.82
2022-12-18T23:59:03.508Z,-3.12
